RJBB/KIX METAR and TAF weather

Enter ICAO airport designator
Station Type Date Time Source
RJBB METAR 2021/06/24 05:00 UTC NOAA

RJBB 240500Z 26009KT 9999 FEW025 SCT/// 25/21 Q1010 NOSIG


Station Type Date Time Source
RJBB Decoded METAR 2021/06/24 05:00 UTC NOAA

Kansai International Airport, Japan (RJBB) 34-25N 135-15E 8M
Jun 24, 2021 - 01:00 AM EDT / 2021.06.24 0500 UTC
Wind: from the W (260 degrees) at 10 MPH (9 KT):0
Visibility: greater than 7 mile(s):0
Sky conditions: partly cloudy
Temperature: 77 F (25 C)
Dew Point: 69 F (21 C)
Relative Humidity: 78%
Pressure (altimeter): 29.83 in. Hg (1010 hPa)
ob: RJBB 240500Z 26009KT 9999 FEW025 SCT/// 25/21 Q1010 NOSIG
cycle: 5

Station Type Date Time Source
RJBB TAF 2021/06/24 03:06 UTC NOAA

TAF TAF
AMD RJBB 240300Z 2403/2506 24008KT 9999 FEW020 SCT040
BECMG 2418/2421 10004KT
BECMG 2500/2503 28006KT

Example: see airport list